createdAt,value
2022-12-29T00:00:09.422Z,57.90
2022-12-29T00:01:12.827Z,53.35
2022-12-29T00:02:15.513Z,55.35
2022-12-29T00:03:17.958Z,57.88
2022-12-29T00:04:22.537Z,59.03
2022-12-29T00:05:25.699Z,51.25
2022-12-29T00:06:28.000Z,55.45
2022-12-29T00:07:30.240Z,51.63
2022-12-29T00:08:41.608Z,55.53
2022-12-29T00:09:44.931Z,57.55
2022-12-29T00:10:48.873Z,52.72
2022-12-29T00:11:51.351Z,56.35
2022-12-29T00:13:12.218Z,62.42
2022-12-29T00:14:33.305Z,52.63
2022-12-29T00:15:40.344Z,57.72
2022-12-29T00:16:44.901Z,53.80
2022-12-29T00:17:47.867Z,53.15
2022-12-29T00:18:49.927Z,54.75
2022-12-29T00:20:10.555Z,56.65
2022-12-29T00:21:36.832Z,51.67
2022-12-29T00:22:57.839Z,54.22
2022-12-29T00:24:33.193Z,52.20
2022-12-29T00:25:56.372Z,51.47
2022-12-29T00:27:23.766Z,55.60
2022-12-29T00:28:46.399Z,50.20
2022-12-29T00:30:07.863Z,47.90
2022-12-29T00:32:53.334Z,48.45
2022-12-29T00:34:14.727Z,46.20
2022-12-29T00:35:27.876Z,46.85
2022-12-29T00:36:40.957Z,54.88
2022-12-29T00:38:07.708Z,47.72
2022-12-29T00:39:38.951Z,46.30
2022-12-29T00:41:00.625Z,48.33
2022-12-29T00:42:39.690Z,54.00
2022-12-29T00:44:00.930Z,45.70
2022-12-29T00:45:05.327Z,45.88
2022-12-29T00:46:07.827Z,50.03
2022-12-29T00:47:11.315Z,47.33
2022-12-29T00:48:13.701Z,46.90
2022-12-29T00:49:32.192Z,44.75
2022-12-29T00:50:34.198Z,47.75
2022-12-29T00:51:37.183Z,46.50
2022-12-29T00:52:39.807Z,48.30
2022-12-29T00:53:41.860Z,50.92
2022-12-29T00:54:46.075Z,45.75
2022-12-29T00:55:48.865Z,46.85
2022-12-29T00:56:52.615Z,47.05
2022-12-29T00:57:55.315Z,45.53
2022-12-29T00:59:01.440Z,47.03
2022-12-29T01:00:04.480Z,45.38
2022-12-29T01:01:09.525Z,46.67
2022-12-29T01:02:12.448Z,48.90
2022-12-29T01:03:14.901Z,49.53
2022-12-29T01:04:16.942Z,47.78
2022-12-29T01:05:20.616Z,45.65
2022-12-29T01:06:24.949Z,46.13
2022-12-29T01:07:29.369Z,48.75
2022-12-29T01:08:31.679Z,44.50
2022-12-29T01:09:53.878Z,47.05
2022-12-29T01:11:00.576Z,52.25
2022-12-29T01:12:05.634Z,42.97
2022-12-29T01:13:08.245Z,47.17
2022-12-29T01:14:10.954Z,43.80
2022-12-29T01:15:15.634Z,47.15
2022-12-29T01:16:17.551Z,48.88
2022-12-29T01:17:56.902Z,48.05
2022-12-29T01:19:01.757Z,50.13
2022-12-29T01:20:24.989Z,48.17
2022-12-29T01:21:56.124Z,47.83
2022-12-29T01:23:36.352Z,47.88
2022-12-29T01:24:40.869Z,54.15
2022-12-29T01:25:51.783Z,48.88
2022-12-29T01:26:59.319Z,50.83
2022-12-29T01:28:08.868Z,49.58
2022-12-29T01:29:12.508Z,49.03
2022-12-29T01:30:18.386Z,58.28
2022-12-29T01:31:32.063Z,46.70
2022-12-29T01:32:42.927Z,52.63
2022-12-29T01:33:52.136Z,58.42
2022-12-29T01:34:55.331Z,49.03
2022-12-29T01:36:07.854Z,64.43
2022-12-29T01:37:11.999Z,63.92
2022-12-29T01:38:17.567Z,56.72
2022-12-29T01:39:21.562Z,58.28
2022-12-29T01:40:26.019Z,55.28
2022-12-29T01:41:30.067Z,55.70
2022-12-29T01:42:32.904Z,56.35
2022-12-29T01:44:25.624Z,66.40
2022-12-29T01:45:37.220Z,54.20
2022-12-29T01:46:45.427Z,59.50
2022-12-29T01:47:57.986Z,57.92
2022-12-29T01:49:18.536Z,52.70
2022-12-29T01:50:45.188Z,57.20
2022-12-29T01:52:04.064Z,59.75
2022-12-29T01:53:21.384Z,53.63
2022-12-29T01:54:39.934Z,54.85
2022-12-29T01:56:14.375Z,54.55
2022-12-29T01:57:40.142Z,58.55
2022-12-29T01:58:53.558Z,55.88
2022-12-29T02:00:14.878Z,57.58
2022-12-29T02:24:22.954Z,63.17
2022-12-29T02:25:44.707Z,76.60
2022-12-29T02:27:28.378Z,66.82
2022-12-29T02:33:22.816Z,73.38
2022-12-29T02:35:04.989Z,77.20
2022-12-29T02:36:44.543Z,73.35
2022-12-29T02:38:46.182Z,83.38
2022-12-29T02:57:27.874Z,69.07
2022-12-29T03:00:14.014Z,78.43
2022-12-29T03:02:17.105Z,65.63
2022-12-29T03:03:36.665Z,60.78
2022-12-29T03:04:58.441Z,69.40
2022-12-29T03:06:43.908Z,85.97
2022-12-29T03:07:51.909Z,76.60
2022-12-29T03:09:19.126Z,73.43
2022-12-29T03:10:49.472Z,68.15
2022-12-29T03:12:34.047Z,59.38
2022-12-29T03:14:16.183Z,61.55
2022-12-29T03:16:11.725Z,70.90
2022-12-29T03:17:37.785Z,59.15
2022-12-29T03:18:53.629Z,64.75
2022-12-29T03:20:03.096Z,72.47
2022-12-29T03:21:17.536Z,68.57
2022-12-29T03:22:29.819Z,60.40
2022-12-29T03:23:35.773Z,59.97
2022-12-29T03:24:45.489Z,62.53
2022-12-29T03:25:53.997Z,80.13
2022-12-29T03:27:06.387Z,66.53
2022-12-29T03:28:30.605Z,59.53
2022-12-29T03:29:45.407Z,67.07
2022-12-29T03:31:00.554Z,61.40
2022-12-29T03:32:05.588Z,63.70
2022-12-29T03:33:13.937Z,70.43
2022-12-29T03:34:17.966Z,63.20
2022-12-29T03:35:26.031Z,63.03
2022-12-29T03:36:50.664Z,72.55
2022-12-29T03:38:14.983Z,66.45
2022-12-29T03:39:21.961Z,57.72
2022-12-29T03:40:26.026Z,64.85
2022-12-29T03:41:32.641Z,61.28
2022-12-29T03:42:38.279Z,68.18
2022-12-29T03:43:41.542Z,61.38
2022-12-29T03:44:45.617Z,64.35
2022-12-29T03:45:50.931Z,63.80
2022-12-29T03:46:57.192Z,64.40
2022-12-29T03:48:10.182Z,60.90
2022-12-29T03:49:12.421Z,61.65
2022-12-29T03:50:21.469Z,62.75
2022-12-29T03:51:27.279Z,64.70
2022-12-29T03:52:30.087Z,65.35
2022-12-29T03:53:41.733Z,70.00
2022-12-29T03:54:47.974Z,68.78
2022-12-29T03:55:57.665Z,57.67
2022-12-29T03:57:01.108Z,59.53
2022-12-29T03:58:04.224Z,61.65
2022-12-29T03:59:10.139Z,58.33
2022-12-29T04:00:15.024Z,60.90
2022-12-29T04:01:20.124Z,72.18
2022-12-29T04:02:25.177Z,60.20
2022-12-29T04:03:28.768Z,57.97
2022-12-29T04:04:31.361Z,75.00
2022-12-29T04:05:34.779Z,60.45
2022-12-29T04:06:36.988Z,58.80
2022-12-29T04:07:41.767Z,57.75
2022-12-29T04:08:45.557Z,55.25
2022-12-29T04:09:53.118Z,59.28
2022-12-29T04:10:55.954Z,55.83
2022-12-29T04:11:57.940Z,51.13
2022-12-29T04:13:00.852Z,54.70
2022-12-29T04:14:05.109Z,54.33
2022-12-29T04:15:08.320Z,59.70
2022-12-29T04:16:12.345Z,61.75
2022-12-29T04:17:18.178Z,56.72
2022-12-29T04:18:23.745Z,52.70
2022-12-29T04:19:32.210Z,59.40
2022-12-29T04:20:57.116Z,52.65
2022-12-29T04:22:04.397Z,59.40
2022-12-29T04:23:11.428Z,48.22
2022-12-29T04:24:21.698Z,52.17
2022-12-29T04:25:25.172Z,48.45
2022-12-29T04:26:29.186Z,53.78
2022-12-29T04:27:31.431Z,48.38
2022-12-29T04:28:33.566Z,51.40
2022-12-29T04:29:36.360Z,48.17
2022-12-29T04:30:39.645Z,58.33
2022-12-29T04:31:42.224Z,56.28
2022-12-29T04:32:44.659Z,47.75
2022-12-29T04:33:49.699Z,58.15
2022-12-29T04:34:55.172Z,52.50
2022-12-29T04:36:00.316Z,49.38
2022-12-29T04:37:03.804Z,55.22
2022-12-29T04:38:07.935Z,50.55
2022-12-29T04:39:14.810Z,48.70
2022-12-29T04:40:17.106Z,52.40
2022-12-29T04:41:19.679Z,47.95
2022-12-29T04:42:23.029Z,47.25
2022-12-29T04:43:25.473Z,49.55
2022-12-29T04:44:28.659Z,53.90
2022-12-29T04:47:17.047Z,51.03
2022-12-29T04:48:38.994Z,55.78
2022-12-29T04:50:11.543Z,51.85
2022-12-29T04:51:31.357Z,55.17
2022-12-29T04:53:05.752Z,56.25
2022-12-29T04:54:10.375Z,50.95
2022-12-29T04:55:41.493Z,54.58
2022-12-29T04:57:03.727Z,52.65
2022-12-29T05:04:54.093Z,49.10
2022-12-29T05:06:06.694Z,49.53
2022-12-29T05:07:14.505Z,47.10
2022-12-29T05:08:28.028Z,51.17
2022-12-29T05:09:44.979Z,47.95
2022-12-29T05:11:02.031Z,57.33
2022-12-29T05:12:12.244Z,50.75
2022-12-29T05:13:18.745Z,44.95
2022-12-29T05:14:33.125Z,55.78
2022-12-29T05:15:39.456Z,44.15
2022-12-29T05:16:51.420Z,49.72
2022-12-29T05:18:25.843Z,47.22
2022-12-29T05:19:31.982Z,49.90
2022-12-29T05:20:35.899Z,45.85
2022-12-29T05:21:39.891Z,44.42
2022-12-29T05:22:41.906Z,43.80
2022-12-29T05:23:44.102Z,43.15
2022-12-29T05:24:48.768Z,40.97
2022-12-29T05:25:50.701Z,41.15
2022-12-29T05:26:52.835Z,45.05
2022-12-29T05:27:56.562Z,43.15
2022-12-29T05:29:00.955Z,39.25
2022-12-29T05:30:07.256Z,39.17
2022-12-29T05:31:11.680Z,41.13
2022-12-29T05:32:14.166Z,44.70
2022-12-29T05:33:21.067Z,42.08
2022-12-29T05:34:24.696Z,39.70
2022-12-29T05:35:28.193Z,42.58
2022-12-29T05:36:35.794Z,46.20
2022-12-29T05:37:43.413Z,45.28
2022-12-29T05:38:51.664Z,50.88
2022-12-29T05:39:58.733Z,36.53
2022-12-29T05:45:02.641Z,32.47
2022-12-29T05:46:05.299Z,40.70
2022-12-29T05:47:09.657Z,43.50
2022-12-29T05:48:13.544Z,38.35
2022-12-29T05:49:18.012Z,39.08
2022-12-29T05:50:27.677Z,37.78
2022-12-29T05:51:30.746Z,37.25
2022-12-29T05:52:33.949Z,34.92
2022-12-29T05:53:43.527Z,35.35
2022-12-29T05:54:46.492Z,39.25
2022-12-29T05:55:52.491Z,36.58
2022-12-29T05:56:58.518Z,38.72
2022-12-29T05:59:30.254Z,40.13
2022-12-29T06:00:48.128Z,39.20
2022-12-29T06:02:00.470Z,40.40
2022-12-29T06:03:13.504Z,40.80
2022-12-29T06:04:32.069Z,41.80
2022-12-29T06:05:41.720Z,40.10
2022-12-29T06:06:50.052Z,41.13
2022-12-29T06:07:55.889Z,38.92
2022-12-29T06:09:07.381Z,40.27
2022-12-29T06:10:11.043Z,36.42
2022-12-29T06:11:14.388Z,38.05
2022-12-29T06:12:17.712Z,41.00
2022-12-29T06:13:20.769Z,39.72
2022-12-29T06:14:27.011Z,36.03
2022-12-29T06:15:29.834Z,36.92
2022-12-29T06:18:28.898Z,34.55
2022-12-29T06:19:48.317Z,39.85
2022-12-29T06:21:04.060Z,37.50
2022-12-29T06:23:38.291Z,40.90
2022-12-29T06:26:39.801Z,34.70
2022-12-29T06:28:06.703Z,37.80
2022-12-29T06:29:34.965Z,35.15
2022-12-29T06:31:04.433Z,42.33
2022-12-29T06:32:09.298Z,44.45
2022-12-29T06:33:16.531Z,41.13
2022-12-29T06:34:21.467Z,44.55
2022-12-29T06:35:46.350Z,39.70
2022-12-29T06:41:00.032Z,43.10
2022-12-29T06:42:03.733Z,47.10
2022-12-29T06:43:26.338Z,40.03
2022-12-29T06:44:47.206Z,45.97
2022-12-29T06:45:57.287Z,49.88
2022-12-29T06:47:01.382Z,53.30
2022-12-29T06:48:08.545Z,54.95
2022-12-29T06:49:21.193Z,63.95
2022-12-29T06:50:51.701Z,54.45
2022-12-29T06:52:59.313Z,60.53
2022-12-29T06:54:17.058Z,65.05
2022-12-29T06:55:47.060Z,60.60
2022-12-29T06:57:05.703Z,56.60
2022-12-29T07:00:26.318Z,59.03
2022-12-29T07:03:16.365Z,62.35
2022-12-29T07:04:22.014Z,57.47
2022-12-29T07:05:24.039Z,60.85
2022-12-29T07:06:33.956Z,80.15
2022-12-29T07:07:44.661Z,66.97
2022-12-29T07:08:46.647Z,64.57
2022-12-29T07:09:49.558Z,83.72
2022-12-29T07:10:55.123Z,68.90
2022-12-29T07:11:57.266Z,90.55
2022-12-29T07:13:00.605Z,90.50
2022-12-29T07:14:11.464Z,88.68
2022-12-29T07:15:15.271Z,88.82
2022-12-29T07:16:17.836Z,99.22
2022-12-29T07:17:20.712Z,91.10
2022-12-29T07:18:25.983Z,102.45
2022-12-29T07:19:29.941Z,104.78
2022-12-29T07:20:40.039Z,86.35
2022-12-29T07:21:45.832Z,101.22
2022-12-29T07:22:51.950Z,81.63
2022-12-29T07:24:02.572Z,98.32
2022-12-29T07:25:07.167Z,93.05
2022-12-29T07:26:16.538Z,100.75
2022-12-29T07:27:26.358Z,93.90
2022-12-29T07:28:31.166Z,89.45
2022-12-29T07:29:39.684Z,83.30
2022-12-29T07:30:42.351Z,101.25
2022-12-29T07:31:45.292Z,83.13
2022-12-29T07:32:49.486Z,99.30
2022-12-29T07:33:53.316Z,91.93
2022-12-29T07:35:06.141Z,100.90
2022-12-29T07:36:10.927Z,115.57
2022-12-29T07:37:18.643Z,132.60
2022-12-29T07:38:24.670Z,100.60
2022-12-29T07:39:28.844Z,79.72
2022-12-29T07:40:35.204Z,99.30
2022-12-29T07:41:39.608Z,84.30
2022-12-29T07:42:43.823Z,88.03
2022-12-29T07:43:51.299Z,89.45
2022-12-29T07:44:53.591Z,108.18
2022-12-29T07:45:58.565Z,82.90
2022-12-29T07:47:11.376Z,85.43
2022-12-29T07:48:13.893Z,86.80
2022-12-29T07:49:18.912Z,85.78
2022-12-29T07:50:24.557Z,100.18
2022-12-29T07:51:26.511Z,141.77
2022-12-29T07:52:28.789Z,144.38
2022-12-29T07:53:36.166Z,103.05
2022-12-29T07:54:49.786Z,126.97
2022-12-29T07:57:51.088Z,207.50
2022-12-29T07:58:57.345Z,124.70
2022-12-29T08:00:05.582Z,131.15
2022-12-29T08:01:21.779Z,132.98
2022-12-29T08:02:28.023Z,111.13
2022-12-29T08:03:41.123Z,93.55
2022-12-29T08:04:50.719Z,92.82
2022-12-29T08:08:57.558Z,83.82
2022-12-29T08:13:43.422Z,88.35
2022-12-29T08:15:07.914Z,95.85
2022-12-29T08:16:14.658Z,90.15
2022-12-29T08:21:20.172Z,116.80
2022-12-29T08:22:26.851Z,92.63
2022-12-29T08:23:30.720Z,82.70
2022-12-29T08:31:30.547Z,75.40
2022-12-29T08:32:47.859Z,68.25
2022-12-29T08:33:56.186Z,85.35
2022-12-29T08:35:49.791Z,70.18
2022-12-29T08:37:59.121Z,72.68
2022-12-29T08:39:14.328Z,77.90
2022-12-29T08:40:18.726Z,74.35
2022-12-29T08:41:32.230Z,94.47
2022-12-29T08:43:11.191Z,74.82
2022-12-29T08:44:18.237Z,101.65
2022-12-29T08:45:36.527Z,70.95
2022-12-29T08:46:38.908Z,82.05
2022-12-29T08:47:49.120Z,79.25
2022-12-29T08:50:30.645Z,81.35
2022-12-29T08:51:40.140Z,76.28
2022-12-29T08:52:43.569Z,79.22
2022-12-29T08:53:59.953Z,98.28
2022-12-29T08:55:02.785Z,70.70
2022-12-29T08:56:14.173Z,82.90
2022-12-29T08:57:35.821Z,78.22
2022-12-29T08:58:40.448Z,70.47
2022-12-29T09:01:06.340Z,65.35
2022-12-29T09:02:12.547Z,81.75
2022-12-29T09:04:04.223Z,78.40
2022-12-29T09:05:03.237Z,63.65
2022-12-29T09:06:10.663Z,65.72
2022-12-29T09:07:17.314Z,64.18
2022-12-29T09:08:25.605Z,80.10
2022-12-29T09:09:28.639Z,64.40
2022-12-29T09:10:31.113Z,59.17
2022-12-29T09:11:33.231Z,55.17
2022-12-29T09:12:41.017Z,57.03
2022-12-29T09:13:44.590Z,52.65
2022-12-29T09:14:51.753Z,49.17
2022-12-29T09:16:00.407Z,50.28
2022-12-29T09:17:22.089Z,48.05
2022-12-29T09:18:25.977Z,49.33
2022-12-29T09:19:28.614Z,46.33
2022-12-29T09:20:32.076Z,48.35
2022-12-29T09:21:37.098Z,48.25
2022-12-29T09:22:42.255Z,50.67
2022-12-29T09:23:44.847Z,43.80
2022-12-29T09:24:47.675Z,46.13
2022-12-29T09:25:49.855Z,48.40
2022-12-29T09:26:53.310Z,45.03
2022-12-29T09:27:56.004Z,48.83
2022-12-29T09:28:59.766Z,45.15
2022-12-29T09:30:02.607Z,42.08
2022-12-29T09:31:06.324Z,45.10
2022-12-29T09:32:13.934Z,45.42
2022-12-29T09:33:19.859Z,40.70
2022-12-29T09:34:22.689Z,40.65
2022-12-29T09:35:27.236Z,39.95
2022-12-29T09:36:31.482Z,35.45
2022-12-29T09:37:34.049Z,43.60
2022-12-29T09:38:38.402Z,39.60
2022-12-29T09:39:42.828Z,53.90
2022-12-29T09:40:52.505Z,38.03
2022-12-29T09:43:33.240Z,33.63
2022-12-29T09:45:09.963Z,35.50
2022-12-29T09:46:33.490Z,46.95
2022-12-29T09:47:39.831Z,39.92
2022-12-29T09:49:14.888Z,46.70
2022-12-29T09:50:34.850Z,32.85
2022-12-29T09:53:27.788Z,32.72
2022-12-29T09:54:58.130Z,34.13
2022-12-29T09:59:21.316Z,29.23
2022-12-29T10:39:44.966Z,16.20
2022-12-29T10:59:33.334Z,19.40
2022-12-29T11:01:20.045Z,17.70
2022-12-29T11:08:05.584Z,18.83
2022-12-29T11:14:06.854Z,18.17
2022-12-29T11:15:09.902Z,19.70
2022-12-29T11:16:46.785Z,19.60
2022-12-29T11:24:35.944Z,36.60
2022-12-29T11:25:43.250Z,23.05
2022-12-29T11:27:11.189Z,21.63
2022-12-29T11:28:20.862Z,21.23
2022-12-29T11:31:18.474Z,23.38
2022-12-29T11:32:43.982Z,26.42
2022-12-29T11:42:12.907Z,28.10
2022-12-29T11:43:37.678Z,26.75
2022-12-29T11:45:12.690Z,29.60
2022-12-29T11:48:22.837Z,51.78
2022-12-29T11:49:27.641Z,46.63
2022-12-29T11:50:34.314Z,36.65
2022-12-29T11:51:43.264Z,39.47
2022-12-29T11:52:45.613Z,40.17
2022-12-29T11:53:51.614Z,41.05
2022-12-29T11:54:56.038Z,41.35
2022-12-29T11:56:09.870Z,39.55
2022-12-29T11:57:18.141Z,46.70
2022-12-29T11:58:20.858Z,34.00
2022-12-29T11:59:31.083Z,35.47
2022-12-29T12:00:41.474Z,39.17
2022-12-29T12:01:45.119Z,36.25
2022-12-29T12:02:57.911Z,40.15
2022-12-29T12:04:17.150Z,37.83
2022-12-29T12:05:32.328Z,39.33
2022-12-29T12:06:39.023Z,37.47
2022-12-29T12:07:48.259Z,38.20
2022-12-29T12:08:57.367Z,36.50
2022-12-29T12:10:08.058Z,37.35
2022-12-29T12:11:17.879Z,37.80
2022-12-29T12:12:34.520Z,34.97
2022-12-29T12:13:56.957Z,35.10
2022-12-29T12:15:01.362Z,34.40
2022-12-29T12:16:13.648Z,37.25
2022-12-29T12:17:50.934Z,38.15
2022-12-29T12:18:58.497Z,36.45
2022-12-29T12:20:25.215Z,40.90
2022-12-29T12:21:33.431Z,38.65
2022-12-29T12:22:44.693Z,33.65
2022-12-29T12:25:47.874Z,31.33
2022-12-29T12:27:08.731Z,36.85
2022-12-29T12:28:37.578Z,30.33
2022-12-29T12:30:00.819Z,29.30
2022-12-29T12:31:06.246Z,30.42
2022-12-29T12:32:24.419Z,29.55
2022-12-29T12:33:36.210Z,31.55
2022-12-29T12:34:43.061Z,30.42
2022-12-29T12:36:09.462Z,36.50
2022-12-29T12:37:36.595Z,38.00
2022-12-29T12:38:56.827Z,30.83
2022-12-29T12:40:23.390Z,31.80
2022-12-29T12:42:07.144Z,28.63
2022-12-29T12:43:45.330Z,29.88
2022-12-29T12:45:08.305Z,26.60
2022-12-29T12:46:27.718Z,34.22
2022-12-29T12:47:56.549Z,30.02
2022-12-29T12:49:22.956Z,28.85
2022-12-29T12:50:46.427Z,33.75
2022-12-29T12:52:10.692Z,34.25
2022-12-29T12:53:24.397Z,31.40
2022-12-29T12:55:10.664Z,37.55
2022-12-29T12:56:34.141Z,33.58
2022-12-29T12:58:02.049Z,28.25
2022-12-29T12:59:31.147Z,26.98
2022-12-29T13:00:52.156Z,26.85
2022-12-29T13:02:16.009Z,30.02
2022-12-29T13:03:51.599Z,29.45
2022-12-29T13:05:24.321Z,26.75
2022-12-29T13:06:53.977Z,28.23
2022-12-29T13:08:07.350Z,30.35
2022-12-29T13:09:39.632Z,26.90
2022-12-29T13:10:54.485Z,24.25
2022-12-29T13:12:23.015Z,28.55
2022-12-29T13:13:34.444Z,30.55
2022-12-29T13:15:03.956Z,32.63
2022-12-29T13:16:27.136Z,31.20
2022-12-29T13:17:42.279Z,27.48
2022-12-29T13:18:49.102Z,30.02
2022-12-29T13:20:18.766Z,33.83
2022-12-29T13:22:00.184Z,27.38
2022-12-29T13:23:29.388Z,26.85
2022-12-29T13:24:59.444Z,27.70
2022-12-29T13:26:38.405Z,25.25
2022-12-29T13:28:05.423Z,30.67
2022-12-29T13:29:18.485Z,31.92
2022-12-29T13:30:42.396Z,31.95
2022-12-29T13:32:08.057Z,26.58
2022-12-29T13:33:43.086Z,27.00
2022-12-29T13:35:22.148Z,30.35
2022-12-29T13:36:51.105Z,27.08
2022-12-29T13:38:04.605Z,26.80
2022-12-29T13:39:26.831Z,27.15
2022-12-29T13:40:40.228Z,28.67
2022-12-29T13:42:05.177Z,27.27
2022-12-29T13:43:17.070Z,27.65
2022-12-29T13:45:46.163Z,25.88
2022-12-29T13:46:52.338Z,32.63
2022-12-29T13:48:05.059Z,34.67
2022-12-29T13:49:20.219Z,28.55
2022-12-29T13:50:26.860Z,31.50
2022-12-29T13:51:34.564Z,29.92
2022-12-29T13:52:43.000Z,31.17
2022-12-29T13:54:12.422Z,31.25
2022-12-29T13:55:28.000Z,30.15
2022-12-29T13:57:15.387Z,29.02
2022-12-29T13:58:35.545Z,37.85
2022-12-29T14:00:00.356Z,33.28
2022-12-29T14:01:37.460Z,33.53
2022-12-29T14:02:51.386Z,35.47
2022-12-29T14:03:58.674Z,31.92
2022-12-29T14:05:27.425Z,37.60
2022-12-29T14:06:34.267Z,27.77
2022-12-29T14:07:40.828Z,33.75
2022-12-29T14:08:43.739Z,33.08
2022-12-29T14:09:52.769Z,39.38
2022-12-29T14:10:56.570Z,36.70
2022-12-29T14:11:58.810Z,40.70
2022-12-29T14:13:14.800Z,42.03
2022-12-29T14:14:22.426Z,45.35
2022-12-29T14:15:27.436Z,43.50
2022-12-29T14:16:36.249Z,46.85
2022-12-29T14:17:41.185Z,48.25
2022-12-29T14:18:45.934Z,49.90
2022-12-29T14:19:53.229Z,45.88
2022-12-29T14:21:09.355Z,51.10
2022-12-29T14:22:14.433Z,68.60
2022-12-29T14:23:28.067Z,52.83
2022-12-29T14:24:36.024Z,51.22
2022-12-29T14:26:01.791Z,57.85
2022-12-29T14:27:44.187Z,51.08
2022-12-29T14:28:50.640Z,51.92
2022-12-29T14:29:53.239Z,51.17
2022-12-29T14:30:57.588Z,44.28
2022-12-29T14:32:00.650Z,57.22
2022-12-29T14:33:05.898Z,59.85
2022-12-29T14:34:08.445Z,81.22
2022-12-29T14:35:41.203Z,64.57
2022-12-29T14:37:03.246Z,52.08
2022-12-29T14:38:23.665Z,60.75
2022-12-29T14:39:42.679Z,53.83
2022-12-29T14:40:45.834Z,62.17
2022-12-29T14:41:48.967Z,70.00
2022-12-29T14:42:55.044Z,62.08
2022-12-29T14:44:17.303Z,62.15
2022-12-29T14:45:19.982Z,55.25
2022-12-29T14:46:22.499Z,61.67
2022-12-29T14:47:36.726Z,60.42
2022-12-29T14:48:44.135Z,60.35
2022-12-29T14:49:47.182Z,63.15
2022-12-29T14:50:49.501Z,65.82
2022-12-29T14:51:54.518Z,81.95
2022-12-29T14:53:07.490Z,70.40
2022-12-29T14:54:32.522Z,57.88
2022-12-29T14:55:49.731Z,66.80
2022-12-29T14:56:51.956Z,57.38
2022-12-29T14:58:01.965Z,64.53
2022-12-29T14:59:10.380Z,63.35
2022-12-29T15:00:18.094Z,86.03
2022-12-29T15:01:49.708Z,64.22
2022-12-29T15:03:17.239Z,66.70
2022-12-29T15:04:32.118Z,72.15
2022-12-29T15:05:50.890Z,69.70
2022-12-29T15:06:53.888Z,74.30
2022-12-29T15:07:57.867Z,79.07
2022-12-29T15:09:21.904Z,68.82
2022-12-29T15:10:25.268Z,67.43
2022-12-29T15:11:45.375Z,72.97
2022-12-29T15:12:53.896Z,77.40
2022-12-29T15:13:56.424Z,77.93
2022-12-29T15:15:00.259Z,81.10
2022-12-29T15:16:04.777Z,77.95
2022-12-29T15:17:25.383Z,78.80
2022-12-29T15:18:31.897Z,80.90
2022-12-29T15:19:39.722Z,72.30
2022-12-29T15:20:45.247Z,83.05
2022-12-29T15:21:48.701Z,74.75
2022-12-29T15:22:55.575Z,76.07
2022-12-29T15:23:57.964Z,79.50
2022-12-29T15:25:00.036Z,71.25
2022-12-29T15:26:07.976Z,69.65
2022-12-29T15:27:32.220Z,66.53
2022-12-29T15:28:46.377Z,69.22
2022-12-29T15:29:49.206Z,62.58
2022-12-29T15:30:56.867Z,62.70
2022-12-29T15:32:11.486Z,59.00
2022-12-29T15:33:20.648Z,61.70
2022-12-29T15:34:23.741Z,63.92
2022-12-29T15:35:33.491Z,62.25
2022-12-29T15:36:39.981Z,66.40
2022-12-29T15:37:42.074Z,58.50
2022-12-29T15:38:44.208Z,54.65
2022-12-29T15:39:46.270Z,53.90
2022-12-29T15:40:48.302Z,55.55
2022-12-29T15:42:01.111Z,56.90
2022-12-29T15:43:03.231Z,59.03
2022-12-29T15:44:19.787Z,50.35
2022-12-29T15:45:22.422Z,51.25
2022-12-29T15:46:24.636Z,52.00
2022-12-29T15:47:30.797Z,51.53
2022-12-29T15:48:34.168Z,59.83
2022-12-29T15:49:37.164Z,54.83
2022-12-29T15:50:40.093Z,45.85
2022-12-29T15:51:44.819Z,49.78
2022-12-29T15:52:47.522Z,53.85
2022-12-29T15:53:52.857Z,52.55
2022-12-29T15:54:55.521Z,47.72
2022-12-29T15:56:10.014Z,46.83
2022-12-29T15:57:26.610Z,43.92
2022-12-29T15:58:40.492Z,43.10
2022-12-29T15:59:48.159Z,42.65
2022-12-29T16:00:59.184Z,43.10
2022-12-29T16:03:16.748Z,37.55
2022-12-29T16:04:19.969Z,39.05
2022-12-29T16:05:24.848Z,44.63
2022-12-29T16:06:34.138Z,43.22
2022-12-29T16:07:42.121Z,37.72
2022-12-29T16:08:46.358Z,38.47
2022-12-29T16:09:51.320Z,36.78
2022-12-29T16:10:57.965Z,37.22
2022-12-29T16:12:07.675Z,35.03
2022-12-29T16:13:24.611Z,38.33
2022-12-29T16:14:51.174Z,40.40
2022-12-29T16:16:03.506Z,39.97
2022-12-29T16:17:07.811Z,43.97
2022-12-29T16:18:27.001Z,40.40
2022-12-29T16:19:40.711Z,43.10
2022-12-29T16:20:44.172Z,40.08
2022-12-29T16:21:47.869Z,40.83
2022-12-29T16:22:56.363Z,36.53
2022-12-29T16:24:08.451Z,39.60
2022-12-29T16:25:42.559Z,34.38
2022-12-29T16:27:01.363Z,33.58
2022-12-29T16:28:35.185Z,34.67
2022-12-29T16:29:38.211Z,33.13
2022-12-29T16:30:41.451Z,33.30
2022-12-29T16:32:02.050Z,31.60
2022-12-29T16:33:06.714Z,29.17
2022-12-29T16:34:32.986Z,30.95
2022-12-29T16:35:49.321Z,31.70
2022-12-29T16:36:55.761Z,34.85
2022-12-29T16:38:13.185Z,38.70
2022-12-29T16:39:40.808Z,32.17
2022-12-29T16:41:04.240Z,29.67
2022-12-29T16:42:39.226Z,30.75
2022-12-29T16:43:43.607Z,31.98
2022-12-29T16:44:45.600Z,29.73
2022-12-29T16:45:48.629Z,29.23
2022-12-29T16:47:11.759Z,30.88
2022-12-29T16:48:22.702Z,29.33
2022-12-29T16:49:25.649Z,27.30
2022-12-29T16:50:30.519Z,29.88
2022-12-29T16:51:39.029Z,28.23
2022-12-29T16:52:41.458Z,33.78
2022-12-29T16:53:52.779Z,30.38
2022-12-29T16:55:01.380Z,29.67
2022-12-29T16:57:29.748Z,28.30
2022-12-29T16:58:33.112Z,32.30
2022-12-29T16:59:38.946Z,28.55
2022-12-29T17:00:41.025Z,28.77
2022-12-29T17:01:43.295Z,26.40
2022-12-29T17:02:46.234Z,30.70
2022-12-29T17:03:59.438Z,33.47
2022-12-29T17:05:01.494Z,29.80
2022-12-29T17:06:04.217Z,31.13
2022-12-29T17:07:22.454Z,30.92
2022-12-29T17:08:24.711Z,35.90
2022-12-29T17:09:39.617Z,31.98
2022-12-29T17:11:01.430Z,38.85
2022-12-29T17:12:10.794Z,34.45
2022-12-29T17:13:16.917Z,31.60
2022-12-29T17:14:31.296Z,38.60
2022-12-29T17:15:35.360Z,31.35
2022-12-29T17:16:37.625Z,33.92
2022-12-29T17:17:49.055Z,36.63
2022-12-29T17:18:54.010Z,39.78
2022-12-29T17:20:04.424Z,35.15
2022-12-29T17:21:10.320Z,36.38
2022-12-29T17:22:22.400Z,33.70
2022-12-29T17:23:26.793Z,33.42
2022-12-29T17:24:31.531Z,36.25
2022-12-29T17:25:39.766Z,34.35
2022-12-29T17:26:42.425Z,33.72
2022-12-29T17:27:57.062Z,33.63
2022-12-29T17:29:13.874Z,32.25
2022-12-29T17:30:33.902Z,31.27
2022-12-29T17:31:40.848Z,35.35
2022-12-29T17:32:45.877Z,33.22
2022-12-29T17:33:49.282Z,38.63
2022-12-29T17:34:51.423Z,34.72
2022-12-29T17:35:55.603Z,35.80
2022-12-29T17:36:58.300Z,34.42
2022-12-29T17:38:01.027Z,36.92
2022-12-29T17:39:03.374Z,40.42
2022-12-29T17:40:08.848Z,38.00
2022-12-29T17:41:17.324Z,37.40
2022-12-29T17:42:20.427Z,36.45
2022-12-29T17:43:22.840Z,43.97
2022-12-29T17:44:26.335Z,45.40
2022-12-29T17:45:32.758Z,46.05
2022-12-29T17:46:34.819Z,43.40
2022-12-29T17:47:36.857Z,46.42
2022-12-29T17:48:38.758Z,48.72
2022-12-29T17:49:40.778Z,44.15
2022-12-29T17:50:43.857Z,53.20
2022-12-29T17:51:47.437Z,50.92
2022-12-29T17:53:08.479Z,53.10
2022-12-29T17:54:30.921Z,54.20
2022-12-29T17:56:42.825Z,53.47
2022-12-29T17:57:46.842Z,53.20
2022-12-29T17:58:49.373Z,54.42
2022-12-29T18:00:04.954Z,62.75
2022-12-29T18:01:07.634Z,57.92
2022-12-29T18:02:36.276Z,59.75
2022-12-29T18:03:46.024Z,58.47
2022-12-29T18:04:59.629Z,58.28
2022-12-29T18:06:14.615Z,64.45
2022-12-29T18:07:17.361Z,66.55
2022-12-29T18:08:31.985Z,65.95
2022-12-29T18:10:01.982Z,64.30
2022-12-29T18:11:05.150Z,69.80
2022-12-29T18:12:35.873Z,64.03
2022-12-29T18:13:46.285Z,67.60
2022-12-29T18:14:49.821Z,64.45
2022-12-29T18:15:57.269Z,63.45
2022-12-29T18:16:59.302Z,64.45
2022-12-29T18:18:11.747Z,59.67
2022-12-29T18:19:14.938Z,65.45
2022-12-29T18:20:17.331Z,62.25
2022-12-29T18:21:21.893Z,65.55
2022-12-29T18:22:25.264Z,69.07
2022-12-29T18:23:33.338Z,66.68
2022-12-29T18:24:35.529Z,71.93
2022-12-29T18:25:56.240Z,68.03
2022-12-29T18:26:58.283Z,68.90
2022-12-29T18:28:00.633Z,74.88
2022-12-29T18:29:02.906Z,79.78
2022-12-29T18:30:05.927Z,69.57
2022-12-29T18:31:22.289Z,71.55
2022-12-29T18:32:24.776Z,73.50
2022-12-29T18:33:28.431Z,75.43
2022-12-29T18:34:30.561Z,77.32
2022-12-29T18:35:39.765Z,75.35
2022-12-29T18:36:44.993Z,79.10
2022-12-29T18:37:48.873Z,80.85
2022-12-29T18:38:54.479Z,83.60